createdAt,value
2022-12-24T00:01:37.468Z,91.70
2022-12-24T00:04:06.308Z,91.40
2022-12-24T00:06:34.759Z,91.40
2022-12-24T00:09:03.166Z,91.40
2022-12-24T00:11:31.522Z,91.80
2022-12-24T00:13:59.937Z,91.70
2022-12-24T00:16:29.772Z,91.70
2022-12-24T00:18:58.190Z,92.10
2022-12-24T00:21:26.480Z,92.30
2022-12-24T00:23:55.021Z,92.60
2022-12-24T00:26:23.463Z,92.60
2022-12-24T00:28:52.246Z,92.70
2022-12-24T00:31:20.933Z,92.60
2022-12-24T00:33:50.688Z,92.70
2022-12-24T00:36:20.731Z,92.80
2022-12-24T00:38:49.369Z,92.90
2022-12-24T00:41:29.051Z,92.70
2022-12-24T00:44:00.489Z,92.70
2022-12-24T00:46:30.160Z,92.70
2022-12-24T00:49:00.005Z,92.70
2022-12-24T00:51:28.700Z,92.80
2022-12-24T00:53:57.336Z,92.90
2022-12-24T00:56:25.821Z,92.90
2022-12-24T00:58:55.783Z,92.90
2022-12-24T01:01:25.051Z,92.90
2022-12-24T01:04:14.411Z,93.00
2022-12-24T01:06:43.374Z,93.00
2022-12-24T01:09:12.141Z,93.10
2022-12-24T01:11:40.609Z,93.10
2022-12-24T01:14:08.971Z,93.20
2022-12-24T01:16:37.258Z,93.10
2022-12-24T01:19:05.930Z,93.10
2022-12-24T01:21:34.254Z,93.30
2022-12-24T01:24:04.234Z,93.40
2022-12-24T01:26:32.563Z,93.40
2022-12-24T01:29:01.236Z,93.40
2022-12-24T01:31:29.524Z,93.50
2022-12-24T01:33:58.167Z,93.50
2022-12-24T01:36:26.453Z,93.60
2022-12-24T01:38:54.734Z,93.70
2022-12-24T01:41:50.639Z,93.70
2022-12-24T01:44:35.169Z,93.80
2022-12-24T01:47:10.544Z,93.90
2022-12-24T01:49:44.017Z,93.80
2022-12-24T01:52:16.390Z,93.80
2022-12-24T01:54:49.670Z,93.80
2022-12-24T01:57:23.937Z,93.90
2022-12-24T01:59:57.981Z,93.90
2022-12-24T02:02:26.991Z,93.80
2022-12-24T02:05:03.431Z,93.80
2022-12-24T02:07:31.882Z,93.80
2022-12-24T02:10:02.300Z,93.90
2022-12-24T02:12:36.527Z,93.80
2022-12-24T02:15:06.629Z,93.80
2022-12-24T02:17:45.066Z,93.80
2022-12-24T02:21:07.744Z,93.80
2022-12-24T02:24:07.729Z,93.80
2022-12-24T02:27:15.950Z,93.70
2022-12-24T02:30:21.337Z,93.70
2022-12-24T02:33:19.691Z,93.70
2022-12-24T02:35:55.503Z,93.80
2022-12-24T02:38:29.630Z,93.90
2022-12-24T02:41:03.530Z,93.70
2022-12-24T02:43:36.847Z,93.60
2022-12-24T02:46:13.705Z,93.70
2022-12-24T02:48:44.886Z,93.80
2022-12-24T02:51:13.918Z,93.90
2022-12-24T02:53:42.741Z,94.00
2022-12-24T02:56:37.514Z,94.00
2022-12-24T02:59:35.374Z,94.00
2022-12-24T03:02:14.177Z,94.00
2022-12-24T03:04:50.053Z,93.90
2022-12-24T03:07:23.675Z,93.80
2022-12-24T03:10:16.605Z,93.80
2022-12-24T03:12:48.750Z,93.80
2022-12-24T03:15:21.323Z,93.80
2022-12-24T03:17:54.725Z,93.60
2022-12-24T03:20:28.339Z,93.60
2022-12-24T03:22:56.866Z,93.70
2022-12-24T03:25:27.567Z,93.80
2022-12-24T03:27:57.692Z,93.80
2022-12-24T03:30:28.104Z,93.80
2022-12-24T03:32:57.989Z,93.80
2022-12-24T03:35:26.681Z,93.90
2022-12-24T03:37:55.028Z,94.00
2022-12-24T03:40:23.362Z,94.00
2022-12-24T03:42:51.932Z,94.00
2022-12-24T03:45:20.376Z,94.00
2022-12-24T03:47:48.763Z,94.10
2022-12-24T03:50:18.576Z,94.00
2022-12-24T03:52:46.934Z,94.00
2022-12-24T03:55:15.327Z,94.00
2022-12-24T03:57:43.613Z,94.10
2022-12-24T04:00:13.573Z,94.10
2022-12-24T04:02:42.154Z,94.00
2022-12-24T04:05:15.210Z,93.90
2022-12-24T04:07:45.303Z,94.00
2022-12-24T04:10:14.025Z,94.10
2022-12-24T04:12:42.595Z,94.20
2022-12-24T04:15:12.379Z,94.30
2022-12-24T04:17:40.791Z,94.40
2022-12-24T04:20:10.846Z,94.50
2022-12-24T04:22:39.129Z,94.60
2022-12-24T04:25:10.854Z,94.70
2022-12-24T04:27:39.204Z,94.80
2022-12-24T04:30:09.569Z,94.80
2022-12-24T04:32:37.874Z,94.80
2022-12-24T04:35:07.149Z,94.80
2022-12-24T04:37:35.839Z,94.80
2022-12-24T04:40:06.183Z,94.90
2022-12-24T04:42:35.873Z,94.90
2022-12-24T04:45:04.377Z,94.90
2022-12-24T04:47:32.660Z,94.80
2022-12-24T04:50:01.624Z,94.90
2022-12-24T04:52:30.554Z,95.00
2022-12-24T04:54:58.931Z,94.90
2022-12-24T04:57:27.261Z,94.80
2022-12-24T04:59:56.937Z,94.80
2022-12-24T05:02:25.465Z,94.80
2022-12-24T05:04:53.889Z,94.80
2022-12-24T05:07:22.775Z,94.70
2022-12-24T05:09:51.085Z,94.60
2022-12-24T05:12:19.426Z,94.60
2022-12-24T05:14:47.876Z,94.50
2022-12-24T05:17:17.947Z,94.60
2022-12-24T05:19:46.243Z,94.50
2022-12-24T05:22:31.803Z,94.50
2022-12-24T05:25:17.299Z,94.50
2022-12-24T05:27:51.088Z,94.40
2022-12-24T05:30:20.089Z,94.30
2022-12-24T05:32:49.929Z,94.40
2022-12-24T05:35:18.287Z,94.40
2022-12-24T05:37:46.667Z,94.20
2022-12-24T05:40:15.310Z,94.20
2022-12-24T05:42:43.815Z,94.20
2022-12-24T05:45:12.456Z,94.20
2022-12-24T05:47:43.384Z,94.20
2022-12-24T05:50:13.982Z,94.20
2022-12-24T05:52:42.368Z,94.20
2022-12-24T05:55:11.501Z,94.10
2022-12-24T05:57:41.601Z,94.10
2022-12-24T06:00:11.580Z,94.00
2022-12-24T06:02:39.935Z,94.00
2022-12-24T06:05:09.188Z,93.90
2022-12-24T06:07:40.040Z,93.90
2022-12-24T06:10:10.395Z,93.90
2022-12-24T06:12:38.931Z,93.90
2022-12-24T06:15:09.150Z,93.90
2022-12-24T06:17:37.417Z,93.90
2022-12-24T06:20:06.880Z,94.00
2022-12-24T06:22:35.238Z,93.90
2022-12-24T06:25:05.624Z,94.00
2022-12-24T06:27:34.139Z,93.80
2022-12-24T06:30:02.489Z,93.90
2022-12-24T06:32:30.805Z,93.90
2022-12-24T06:34:59.175Z,93.90
2022-12-24T06:37:27.429Z,93.90
2022-12-24T06:39:55.678Z,93.90
2022-12-24T06:42:25.568Z,94.00
2022-12-24T06:44:53.834Z,94.00
2022-12-24T06:47:22.226Z,94.00
2022-12-24T06:49:50.488Z,93.90
2022-12-24T06:52:18.819Z,93.90
2022-12-24T06:54:47.222Z,93.90
2022-12-24T06:57:15.529Z,93.80
2022-12-24T06:59:45.217Z,93.90
2022-12-24T07:02:13.526Z,93.90
2022-12-24T07:04:41.999Z,93.90
2022-12-24T07:07:10.280Z,93.90
2022-12-24T07:09:38.761Z,93.90
2022-12-24T07:12:07.352Z,94.00
2022-12-24T07:14:36.438Z,93.90
2022-12-24T07:17:06.176Z,94.10
2022-12-24T07:19:35.273Z,93.90
2022-12-24T07:22:03.880Z,93.90
2022-12-24T07:24:32.145Z,94.00
2022-12-24T07:27:00.490Z,94.00
2022-12-24T07:29:28.788Z,94.00
2022-12-24T07:31:57.199Z,94.10
2022-12-24T07:34:26.986Z,94.00
2022-12-24T07:36:55.487Z,93.90
2022-12-24T07:39:24.259Z,93.90
2022-12-24T07:41:53.788Z,93.90
2022-12-24T07:44:22.402Z,93.80
2022-12-24T07:46:51.219Z,93.60
2022-12-24T07:49:20.310Z,93.50
2022-12-24T07:51:50.714Z,93.50
2022-12-24T07:54:19.118Z,93.50
2022-12-24T07:56:47.486Z,93.70
2022-12-24T07:59:15.850Z,93.70
2022-12-24T08:01:44.558Z,93.70
2022-12-24T08:04:13.341Z,93.60
2022-12-24T08:06:41.872Z,93.40
2022-12-24T08:09:11.524Z,93.50
2022-12-24T08:11:40.390Z,93.60
2022-12-24T08:14:10.814Z,93.50
2022-12-24T08:16:39.297Z,93.60
2022-12-24T08:19:07.650Z,93.60
2022-12-24T08:21:36.017Z,93.60
2022-12-24T08:24:04.647Z,93.50
2022-12-24T08:26:34.400Z,93.50
2022-12-24T08:29:03.599Z,93.40
2022-12-24T08:31:36.458Z,93.20
2022-12-24T08:34:05.740Z,93.30
2022-12-24T08:36:34.141Z,93.30
2022-12-24T08:39:03.740Z,93.30
2022-12-24T08:41:34.036Z,93.30
2022-12-24T08:44:02.706Z,93.20
2022-12-24T08:46:31.226Z,93.10
2022-12-24T08:48:59.550Z,93.00
2022-12-24T08:51:27.960Z,93.00
2022-12-24T08:53:56.313Z,93.10
2022-12-24T08:56:24.674Z,93.10
2022-12-24T08:58:54.390Z,93.00
2022-12-24T09:01:23.475Z,92.90
2022-12-24T09:03:51.868Z,93.00
2022-12-24T09:06:20.281Z,93.20
2022-12-24T09:08:48.576Z,93.10
2022-12-24T09:11:20.518Z,93.10
2022-12-24T09:13:48.905Z,93.10
2022-12-24T09:16:18.642Z,93.10
2022-12-24T09:18:47.012Z,93.00
2022-12-24T09:21:17.605Z,93.20
2022-12-24T09:23:49.167Z,93.20
2022-12-24T09:26:20.601Z,93.10
2022-12-24T09:28:49.538Z,93.00
2022-12-24T09:31:19.633Z,93.00
2022-12-24T09:33:49.964Z,93.00
2022-12-24T09:36:19.045Z,93.00
2022-12-24T09:38:47.651Z,93.00
2022-12-24T09:41:26.098Z,93.00
2022-12-24T09:44:00.375Z,92.90
2022-12-24T09:46:33.633Z,92.90
2022-12-24T09:49:07.834Z,92.70
2022-12-24T09:51:42.441Z,92.70
2022-12-24T09:54:18.114Z,92.50
2022-12-24T09:56:48.674Z,92.60
2022-12-24T09:59:19.995Z,92.60
2022-12-24T10:01:50.946Z,92.60
2022-12-24T10:04:21.309Z,92.50
2022-12-24T10:06:55.803Z,92.50
2022-12-24T10:09:34.171Z,92.10
2022-12-24T10:12:11.536Z,92.30
2022-12-24T10:14:59.760Z,92.30
2022-12-24T10:17:46.739Z,92.30
2022-12-24T10:20:37.572Z,92.20
2022-12-24T10:23:16.872Z,92.20
2022-12-24T10:25:52.436Z,92.20
2022-12-24T10:28:42.033Z,92.20
2022-12-24T10:31:11.462Z,92.20
2022-12-24T10:33:44.829Z,92.40
2022-12-24T10:36:19.161Z,92.40
2022-12-24T10:38:48.266Z,92.40
2022-12-24T10:41:17.714Z,92.20
2022-12-24T10:43:47.527Z,92.40
2022-12-24T10:46:23.195Z,92.40
2022-12-24T10:48:59.262Z,92.20
2022-12-24T10:51:35.717Z,92.30
2022-12-24T10:54:13.065Z,92.20
2022-12-24T10:56:44.748Z,92.00
2022-12-24T10:59:27.999Z,92.10
2022-12-24T11:01:57.718Z,91.80
2022-12-24T11:04:29.751Z,92.10
2022-12-24T11:07:01.039Z,91.90
2022-12-24T11:09:32.532Z,92.10
2022-12-24T11:12:09.462Z,91.80
2022-12-24T11:14:40.510Z,91.60
2022-12-24T11:17:11.828Z,91.90
2022-12-24T11:19:41.619Z,91.50
2022-12-24T11:22:20.563Z,91.50
2022-12-24T11:25:01.580Z,91.60
2022-12-24T11:27:36.211Z,90.40
2022-12-24T11:30:30.920Z,89.70
2022-12-24T11:33:21.551Z,89.30
2022-12-24T11:37:22.375Z,89.30
2022-12-24T11:39:53.520Z,89.40
2022-12-24T11:42:27.750Z,89.10
2022-12-24T11:44:58.002Z,89.40
2022-12-24T11:47:37.546Z,89.70
2022-12-24T11:50:29.225Z,89.40
2022-12-24T11:53:32.075Z,89.60
2022-12-24T11:56:02.830Z,89.40
2022-12-24T11:58:41.301Z,89.40
2022-12-24T12:01:22.834Z,88.70
2022-12-24T12:03:55.143Z,88.80
2022-12-24T12:06:34.602Z,88.20
2022-12-24T12:09:12.125Z,87.60
2022-12-24T12:11:41.880Z,87.40
2022-12-24T12:14:20.281Z,87.70
2022-12-24T12:17:04.689Z,87.70
2022-12-24T12:19:41.995Z,88.20
2022-12-24T12:22:22.409Z,88.10
2022-12-24T12:24:55.923Z,88.70
2022-12-24T12:27:32.918Z,88.20
2022-12-24T12:30:06.271Z,87.80
2022-12-24T12:32:47.526Z,87.50
2022-12-24T12:35:25.295Z,87.90
2022-12-24T12:38:02.069Z,87.60
2022-12-24T12:41:05.276Z,87.60
2022-12-24T12:44:01.335Z,87.20
2022-12-24T12:46:42.494Z,87.70
2022-12-24T12:49:27.014Z,87.30
2022-12-24T12:52:04.920Z,87.10
2022-12-24T12:54:55.341Z,87.60
2022-12-24T12:57:30.158Z,87.40
2022-12-24T13:00:05.564Z,87.10
2022-12-24T13:02:58.046Z,87.80
2022-12-24T13:07:02.242Z,87.20
2022-12-24T13:09:52.976Z,87.50
2022-12-24T13:12:43.092Z,87.10
2022-12-24T13:15:54.029Z,86.90
2022-12-24T13:18:42.655Z,86.90
2022-12-24T13:21:19.583Z,87.20
2022-12-24T13:23:49.730Z,86.70
2022-12-24T13:26:18.654Z,85.60
2022-12-24T13:28:47.018Z,86.10
2022-12-24T13:31:29.864Z,85.80
2022-12-24T13:34:03.752Z,84.50
2022-12-24T13:37:14.468Z,84.20
2022-12-24T13:40:18.265Z,84.10
2022-12-24T13:43:07.585Z,84.00
2022-12-24T13:45:50.778Z,82.80
2022-12-24T13:48:34.577Z,83.40
2022-12-24T13:51:24.626Z,84.50
2022-12-24T13:54:00.478Z,83.30
2022-12-24T13:56:33.699Z,82.30
2022-12-24T13:59:19.877Z,83.10
2022-12-24T14:01:48.670Z,82.50
2022-12-24T14:04:28.415Z,83.20
2022-12-24T14:07:00.163Z,84.00
2022-12-24T14:09:30.039Z,84.00
2022-12-24T14:12:48.314Z,84.60
2022-12-24T14:16:03.144Z,84.20
2022-12-24T14:19:28.926Z,83.90
2022-12-24T14:22:05.055Z,83.40
2022-12-24T14:24:36.598Z,83.90
2022-12-24T14:27:15.102Z,83.90
2022-12-24T14:29:51.794Z,84.20
2022-12-24T14:32:20.517Z,85.30
2022-12-24T14:34:48.970Z,84.10
2022-12-24T14:37:18.769Z,85.20
2022-12-24T14:39:56.869Z,84.70
2022-12-24T14:42:41.605Z,85.50
2022-12-24T14:45:26.994Z,85.70
2022-12-24T14:48:05.408Z,87.10
2022-12-24T14:50:59.834Z,86.80
2022-12-24T14:53:49.284Z,87.90
2022-12-24T14:56:20.870Z,87.90
2022-12-24T14:58:49.927Z,87.80
2022-12-24T15:01:26.221Z,88.10
2022-12-24T15:04:07.003Z,87.90
2022-12-24T15:06:39.453Z,88.20
2022-12-24T15:09:15.310Z,89.10
2022-12-24T15:11:46.069Z,89.00
2022-12-24T15:14:15.223Z,89.10
2022-12-24T15:16:54.198Z,89.50
2022-12-24T15:19:28.401Z,89.20
2022-12-24T15:21:57.375Z,89.80
2022-12-24T15:24:28.873Z,89.90
2022-12-24T15:26:57.848Z,89.50
2022-12-24T15:29:28.569Z,90.00
2022-12-24T15:32:01.271Z,90.30
2022-12-24T15:34:33.068Z,90.30
2022-12-24T15:37:07.787Z,90.60
2022-12-24T15:39:36.186Z,90.60
2022-12-24T15:42:18.599Z,90.70
2022-12-24T15:44:59.551Z,91.20
2022-12-24T15:47:38.042Z,90.90
2022-12-24T15:50:16.490Z,90.90
2022-12-24T15:52:47.223Z,90.80
2022-12-24T15:55:30.941Z,91.00
2022-12-24T15:57:59.348Z,91.20
2022-12-24T16:00:31.231Z,91.20
2022-12-24T16:03:19.161Z,91.30
2022-12-24T16:05:48.032Z,91.40
2022-12-24T16:08:33.873Z,91.00
2022-12-24T16:11:13.394Z,91.00
2022-12-24T16:13:44.800Z,91.00
2022-12-24T16:16:16.830Z,91.10
2022-12-24T16:18:53.916Z,91.10
2022-12-24T16:21:26.459Z,91.20
2022-12-24T16:23:57.251Z,91.60
2022-12-24T16:26:25.778Z,91.50
2022-12-24T16:28:56.161Z,91.20
2022-12-24T16:31:33.919Z,91.30
2022-12-24T16:34:05.837Z,91.40
2022-12-24T16:36:34.666Z,91.80
2022-12-24T16:39:20.457Z,91.00
2022-12-24T16:42:06.385Z,91.10
2022-12-24T16:44:34.680Z,91.40
2022-12-24T16:47:03.085Z,91.20
2022-12-24T16:49:32.721Z,91.60
2022-12-24T16:52:01.052Z,92.10
2022-12-24T16:54:30.154Z,92.00
2022-12-24T16:56:58.660Z,92.00
2022-12-24T16:59:27.163Z,92.20
2022-12-24T17:01:55.519Z,92.50
2022-12-24T17:04:26.978Z,92.70
2022-12-24T17:06:56.695Z,92.90
2022-12-24T17:09:25.506Z,92.90
2022-12-24T17:11:54.068Z,93.00
2022-12-24T17:14:22.451Z,93.00
2022-12-24T17:16:50.875Z,93.00
2022-12-24T17:19:19.454Z,93.00
2022-12-24T17:21:47.872Z,92.90
2022-12-24T17:24:17.602Z,92.80
2022-12-24T17:26:45.988Z,92.80
2022-12-24T17:29:15.146Z,92.80
2022-12-24T17:31:43.477Z,92.90
2022-12-24T17:34:11.934Z,92.90
2022-12-24T17:36:40.382Z,93.00
2022-12-24T17:39:08.724Z,93.00
2022-12-24T17:41:38.552Z,93.20
2022-12-24T17:44:08.994Z,93.20
2022-12-24T17:46:37.515Z,93.20
2022-12-24T17:49:05.887Z,93.00
2022-12-24T17:51:35.858Z,93.10
2022-12-24T17:54:07.365Z,93.30
2022-12-24T17:56:37.147Z,93.00
2022-12-24T17:59:07.920Z,92.90
2022-12-24T18:01:36.279Z,92.70
2022-12-24T18:04:05.339Z,92.70
2022-12-24T18:06:33.729Z,92.80
2022-12-24T18:09:02.049Z,93.20
2022-12-24T18:11:33.275Z,93.30
2022-12-24T18:14:05.290Z,93.20
2022-12-24T18:16:36.445Z,93.00
2022-12-24T18:19:08.281Z,93.10
2022-12-24T18:21:36.601Z,93.40
2022-12-24T18:24:06.097Z,93.60
2022-12-24T18:26:34.641Z,93.60
2022-12-24T18:29:05.766Z,93.40
2022-12-24T18:31:34.573Z,93.40
2022-12-24T18:34:05.050Z,93.20
2022-12-24T18:36:33.942Z,93.10
2022-12-24T18:39:02.656Z,93.00
2022-12-24T18:41:32.172Z,92.90
2022-12-24T18:44:00.832Z,93.10
2022-12-24T18:46:34.010Z,92.80
2022-12-24T18:49:03.039Z,92.70
2022-12-24T18:51:34.369Z,92.80
2022-12-24T18:54:03.452Z,92.70
2022-12-24T18:56:32.824Z,93.00
2022-12-24T18:59:03.286Z,93.00
2022-12-24T19:01:35.785Z,93.10
2022-12-24T19:04:04.752Z,93.50
2022-12-24T19:06:33.230Z,93.90
2022-12-24T19:09:02.145Z,93.90
2022-12-24T19:11:33.566Z,94.00
2022-12-24T19:14:03.488Z,94.20
2022-12-24T19:16:38.955Z,94.30
2022-12-24T19:19:10.755Z,94.30
2022-12-24T19:21:39.068Z,94.20
2022-12-24T19:24:10.541Z,94.20
2022-12-24T19:26:39.118Z,94.20
2022-12-24T19:29:07.591Z,94.20
2022-12-24T19:31:37.345Z,94.20
2022-12-24T19:34:05.725Z,94.40
2022-12-24T19:36:35.145Z,94.40
2022-12-24T19:39:03.464Z,94.50
2022-12-24T19:41:32.551Z,94.40
2022-12-24T19:44:02.552Z,94.40
2022-12-24T19:46:33.699Z,94.50
2022-12-24T19:49:06.254Z,94.40
2022-12-24T19:51:35.999Z,94.40
2022-12-24T19:54:06.088Z,94.50
2022-12-24T19:56:35.021Z,94.50
2022-12-24T19:59:05.261Z,94.40
2022-12-24T20:01:36.307Z,94.40
2022-12-24T20:04:06.534Z,94.30
2022-12-24T20:06:36.563Z,94.30
2022-12-24T20:09:07.418Z,94.30
2022-12-24T20:11:36.720Z,94.30
2022-12-24T20:14:07.322Z,94.30
2022-12-24T20:16:36.593Z,94.30
2022-12-24T20:19:08.020Z,94.20
2022-12-24T20:21:38.034Z,94.20
2022-12-24T20:24:07.454Z,94.20
2022-12-24T20:26:36.254Z,94.00
2022-12-24T20:29:06.041Z,94.00
2022-12-24T20:31:35.005Z,93.90
2022-12-24T20:34:07.445Z,93.80
2022-12-24T20:36:37.977Z,93.80
2022-12-24T20:39:07.992Z,93.80
2022-12-24T20:41:37.265Z,93.60
2022-12-24T20:44:05.652Z,93.60
2022-12-24T20:46:34.269Z,93.60
2022-12-24T20:49:02.649Z,93.60
2022-12-24T20:51:32.336Z,93.50
2022-12-24T20:54:02.060Z,93.40
2022-12-24T20:56:31.868Z,93.40
2022-12-24T20:59:01.963Z,93.40
2022-12-24T21:01:30.931Z,93.40
2022-12-24T21:04:07.671Z,93.30
2022-12-24T21:06:37.933Z,93.20
2022-12-24T21:09:07.021Z,93.20
2022-12-24T21:11:53.193Z,93.30
2022-12-24T21:14:24.608Z,93.30
2022-12-24T21:16:55.259Z,93.20
2022-12-24T21:19:26.251Z,93.10
2022-12-24T21:21:56.199Z,93.10
2022-12-24T21:24:24.463Z,93.10
2022-12-24T21:26:52.839Z,93.20
2022-12-24T21:29:21.214Z,93.00
2022-12-24T21:31:49.636Z,93.10
2022-12-24T21:34:18.023Z,92.90
2022-12-24T21:36:46.320Z,92.90
2022-12-24T21:39:16.499Z,93.00
2022-12-24T21:41:44.794Z,93.00
2022-12-24T21:44:13.171Z,92.90
2022-12-24T21:46:41.698Z,93.10
2022-12-24T21:49:29.521Z,93.00
2022-12-24T21:51:57.793Z,92.90
2022-12-24T21:54:30.499Z,92.90
2022-12-24T21:57:19.323Z,92.80
2022-12-24T21:59:49.843Z,92.70
2022-12-24T22:02:18.590Z,92.90
2022-12-24T22:04:47.260Z,92.70
2022-12-24T22:07:40.028Z,92.70
2022-12-24T22:10:29.259Z,92.70
2022-12-24T22:12:59.774Z,92.50
2022-12-24T22:15:28.375Z,92.50
2022-12-24T22:17:56.683Z,92.40
2022-12-24T22:20:25.007Z,92.30
2022-12-24T22:22:54.115Z,92.20
2022-12-24T22:25:23.791Z,92.30
2022-12-24T22:27:52.348Z,92.20
2022-12-24T22:30:20.900Z,92.20
2022-12-24T22:32:49.292Z,92.00
2022-12-24T22:35:17.978Z,91.90
2022-12-24T22:37:46.430Z,92.00
2022-12-24T22:40:15.243Z,92.00
2022-12-24T22:42:44.872Z,92.10
2022-12-24T22:45:18.519Z,92.10
2022-12-24T22:47:48.561Z,91.80
2022-12-24T22:50:17.054Z,92.00
2022-12-24T22:52:45.538Z,91.90
2022-12-24T22:55:13.814Z,92.00
2022-12-24T22:57:42.063Z,92.00
2022-12-24T23:00:18.247Z,92.00
2022-12-24T23:02:46.684Z,92.00
2022-12-24T23:05:16.350Z,92.20
2022-12-24T23:07:44.741Z,92.10
2022-12-24T23:10:13.067Z,92.10
2022-12-24T23:12:58.970Z,92.30
2022-12-24T23:15:28.722Z,92.10
2022-12-24T23:17:57.092Z,92.30
2022-12-24T23:20:25.378Z,92.40
2022-12-24T23:22:53.725Z,92.40
2022-12-24T23:25:21.992Z,92.40
2022-12-24T23:27:50.506Z,92.30
2022-12-24T23:30:19.820Z,92.30
2022-12-24T23:32:49.541Z,92.40
2022-12-24T23:35:18.232Z,92.40
2022-12-24T23:37:46.601Z,92.60
2022-12-24T23:40:15.352Z,92.70
2022-12-24T23:42:43.648Z,92.60
2022-12-24T23:45:12.434Z,92.70
2022-12-24T23:47:41.796Z,92.80
2022-12-24T23:50:12.546Z,92.70
2022-12-24T23:52:43.562Z,92.70
2022-12-24T23:55:11.648Z,92.70
2022-12-24T23:57:39.925Z,92.70
